Time;durP1;ratioP1;P1;durP2;ratioP2;P2;SDS_P1;SDS_P2;PMS_P1;PMS_P2;Temp;Humidity;BMP_temperature;BMP_pressure;BME280_temperature;BME280_humidity;BME280_pressure;Samples;Min_cycle;Max_cycle;Signal;HPM_P1;HPM_P2
2023/06/20 00:01:19;;;;;;;13.15;11.80;;;14.80;99.90;;;;;;5072308;28;20032;-82
2023/06/20 00:03:45;;;;;;;12.55;11.35;;;14.80;99.90;;;;;;5073793;28;20025;-83
2023/06/20 00:06:11;;;;;;;11.65;10.45;;;14.70;99.90;;;;;;5072192;28;20027;-82
2023/06/20 00:08:36;;;;;;;10.98;9.68;;;14.60;99.90;;;;;;5072261;28;20021;-83
2023/06/20 00:11:02;;;;;;;11.18;10.07;;;14.50;99.90;;;;;;5073540;28;20063;-82
2023/06/20 00:13:27;;;;;;;11.63;10.52;;;14.50;99.90;;;;;;5073479;28;20437;-83
2023/06/20 00:15:53;;;;;;;12.45;11.15;;;14.50;99.90;;;;;;5073419;28;20024;-83
2023/06/20 00:18:19;;;;;;;14.02;11.80;;;14.50;99.90;;;;;;5074023;28;20024;-81
2023/06/20 00:20:47;;;;;;;13.48;12.07;;;14.50;99.90;;;;;;5074528;28;20106;-82
2023/06/20 00:23:12;;;;;;;13.60;12.20;;;14.50;99.90;;;;;;5072231;28;20020;-82
2023/06/20 00:25:38;;;;;;;14.00;12.40;;;14.50;99.90;;;;;;5073484;28;20025;-82
2023/06/20 00:28:04;;;;;;;13.82;11.80;;;14.40;99.90;;;;;;5072129;28;20119;-83
2023/06/20 00:30:30;;;;;;;15.70;12.30;;;14.40;99.90;;;;;;5071966;28;20070;-82
2023/06/20 00:32:58;;;;;;;15.07;13.23;;;14.40;99.90;;;;;;5072051;28;20024;-82
2023/06/20 00:35:25;;;;;;;17.13;13.52;;;14.40;99.90;;;;;;5073208;28;20023;-83
2023/06/20 00:37:50;;;;;;;16.25;13.82;;;14.40;99.90;;;;;;5073375;28;20435;-83
2023/06/20 00:40:16;;;;;;;15.88;13.73;;;14.40;99.90;;;;;;5071855;28;20078;-82
2023/06/20 00:42:42;;;;;;;16.73;14.07;;;14.40;99.90;;;;;;5074578;28;20024;-83
2023/06/20 00:45:32;;;;;;;18.00;14.40;;;14.40;99.90;;;;;;5072009;28;20420;-83
2023/06/20 00:48:01;;;;;;;18.10;14.90;;;14.40;99.90;;;;;;5071876;28;20048;-83
2023/06/20 00:50:28;;;;;;;16.02;14.13;;;14.30;99.90;;;;;;5071868;28;20508;-82
2023/06/20 00:53:05;;;;;;;16.25;14.00;;;14.30;99.90;;;;;;5071799;28;20465;-82
2023/06/20 00:55:33;;;;;;;20.08;14.75;;;14.30;99.90;;;;;;5073084;28;20066;-82
2023/06/20 00:57:59;;;;;;;17.58;15.60;;;14.30;99.90;;;;;;5071782;28;20028;-82
2023/06/20 01:00:28;;;;;;;17.23;15.40;;;14.30;99.90;;;;;;5071539;28;20400;-82
2023/06/20 01:03:02;;;;;;;17.15;13.70;;;14.20;99.90;;;;;;5071608;28;20061;-82
2023/06/20 01:05:29;;;;;;;16.10;14.40;;;14.20;99.90;;;;;;5087127;28;20020;-82
2023/06/20 01:08:07;;;;;;;18.38;15.25;;;14.20;99.90;;;;;;5093045;28;20384;-83
2023/06/20 01:10:56;;;;;;;21.15;15.93;;;14.20;99.90;;;;;;5093210;28;20050;-82
2023/06/20 01:13:31;;;;;;;17.58;14.20;;;14.10;99.90;;;;;;5093940;28;20020;-82
2023/06/20 01:16:23;;;;;;;18.02;13.75;;;14.20;99.90;;;;;;5097087;28;20024;-82
2023/06/20 01:19:11;;;;;;;16.90;13.85;;;14.10;99.90;;;;;;5083442;28;20481;-82
2023/06/20 01:21:42;;;;;;;13.48;11.95;;;14.10;99.90;;;;;;5095490;28;20032;-82
2023/06/20 01:24:29;;;;;;;14.68;12.05;;;14.00;99.90;;;;;;5095604;28;20529;-82
2023/06/20 01:27:03;;;;;;;18.15;15.40;;;13.90;99.90;;;;;;5095464;28;20020;-82
2023/06/20 01:29:32;;;;;;;21.83;16.80;;;13.90;99.90;;;;;;5095572;28;20020;-82
2023/06/20 01:32:01;;;;;;;19.63;14.85;;;13.90;99.90;;;;;;5097413;28;20373;-81
2023/06/20 01:34:29;;;;;;;16.17;13.57;;;13.80;99.90;;;;;;5095501;28;20028;-82
2023/06/20 01:36:58;;;;;;;13.45;12.05;;;13.80;99.90;;;;;;5095449;28;20425;-81
2023/06/20 01:39:59;;;;;;;12.43;11.02;;;13.80;99.90;;;;;;5095167;28;20023;-81
2023/06/20 01:42:26;;;;;;;12.13;10.80;;;13.80;99.90;;;;;;5053478;28;20393;-82
2023/06/20 01:44:55;;;;;;;13.07;11.68;;;13.70;99.90;;;;;;5096678;28;20099;-81
2023/06/20 01:47:23;;;;;;;12.30;11.10;;;13.70;99.90;;;;;;5089115;28;20045;-82
2023/06/20 01:49:52;;;;;;;13.32;11.98;;;13.80;99.90;;;;;;5074842;28;20020;-82
2023/06/20 01:52:19;;;;;;;15.15;13.25;;;13.80;99.90;;;;;;5074714;28;20123;-82
2023/06/20 01:54:47;;;;;;;15.27;12.85;;;13.80;99.90;;;;;;5074679;28;20020;-83
2023/06/20 01:57:15;;;;;;;17.35;13.85;;;13.80;99.90;;;;;;5078010;28;20046;-82
2023/06/20 01:59:42;;;;;;;15.85;13.82;;;13.80;99.90;;;;;;5076016;28;20390;-83
2023/06/20 02:02:09;;;;;;;15.07;13.48;;;13.80;99.90;;;;;;5074746;28;20027;-83
2023/06/20 02:04:35;;;;;;;16.20;14.50;;;13.80;99.90;;;;;;5074603;28;20063;-83
2023/06/20 02:07:03;;;;;;;16.95;14.90;;;13.80;99.90;;;;;;5075819;28;20021;-83
2023/06/20 02:09:29;;;;;;;17.42;14.38;;;13.80;99.90;;;;;;5075838;28;20031;-81
2023/06/20 02:11:56;;;;;;;14.55;12.95;;;13.80;99.90;;;;;;5075619;28;20044;-82
2023/06/20 02:14:24;;;;;;;15.35;12.95;;;13.80;99.90;;;;;;5075641;28;20085;-82
2023/06/20 02:16:51;;;;;;;15.90;13.00;;;13.70;99.90;;;;;;5074271;28;20074;-82
2023/06/20 02:19:17;;;;;;;17.00;15.25;;;13.70;99.90;;;;;;5074124;28;20021;-82
2023/06/20 02:21:46;;;;;;;14.10;12.60;;;13.70;99.90;;;;;;5076466;28;20028;-81
2023/06/20 02:24:15;;;;;;;16.35;14.57;;;13.70;99.90;;;;;;5075577;28;20017;-81
2023/06/20 02:26:43;;;;;;;17.92;14.32;;;13.70;99.90;;;;;;5075522;28;20052;-81
2023/06/20 02:29:11;;;;;;;17.35;14.45;;;13.60;99.90;;;;;;5074174;28;20599;-81
2023/06/20 02:31:40;;;;;;;15.45;13.02;;;13.60;99.90;;;;;;5075279;28;20017;-81
2023/06/20 02:34:11;;;;;;;15.75;13.82;;;13.60;99.90;;;;;;5074013;28;20396;-81
2023/06/20 02:36:38;;;;;;;16.35;14.23;;;13.60;99.90;;;;;;5073876;28;20031;-81
2023/06/20 02:39:06;;;;;;;20.52;16.60;;;13.50;99.90;;;;;;5075204;28;20100;-81
2023/06/20 02:41:32;;;;;;;17.10;14.98;;;13.60;99.90;;;;;;5073722;28;20127;-81
2023/06/20 02:43:58;;;;;;;19.83;16.13;;;13.60;99.90;;;;;;5075965;28;20468;-82
2023/06/20 02:46:36;;;;;;;21.35;17.98;;;13.60;99.90;;;;;;5075162;28;20020;-81
2023/06/20 02:49:28;;;;;;;18.60;15.93;;;13.60;99.90;;;;;;5073749;28;20168;-80
2023/06/20 02:52:12;;;;;;;17.23;15.40;;;13.60;99.90;;;;;;5073916;28;20478;-81
2023/06/20 02:54:50;;;;;;;17.58;15.30;;;13.50;99.90;;;;;;5073683;28;20060;-81
2023/06/20 02:57:20;;;;;;;14.65;12.43;;;13.50;99.90;;;;;;5074706;28;20031;-80
2023/06/20 02:59:54;;;;;;;14.60;10.75;;;13.40;99.90;;;;;;5073407;28;20460;-81
2023/06/20 03:02:22;;;;;;;13.85;12.48;;;13.40;99.90;;;;;;5074634;28;20422;-81
2023/06/20 03:04:56;;;;;;;12.40;11.15;;;13.40;99.90;;;;;;5074605;28;20028;-81
2023/06/20 03:07:25;;;;;;;14.30;12.43;;;13.40;99.90;;;;;;5074161;28;20484;-82
2023/06/20 03:09:54;;;;;;;14.77;11.52;;;13.40;99.90;;;;;;5073320;28;20024;-81
2023/06/20 03:12:20;;;;;;;15.88;11.32;;;13.40;99.90;;;;;;5074570;28;20047;-81
2023/06/20 03:14:45;;;;;;;17.10;12.52;;;13.40;99.90;;;;;;5073280;28;20436;-82
2023/06/20 03:17:11;;;;;;;15.43;12.63;;;13.40;99.90;;;;;;5073003;28;20088;-83
2023/06/20 03:19:36;;;;;;;13.75;11.32;;;13.50;99.90;;;;;;5074285;28;20025;-81
2023/06/20 03:22:02;;;;;;;14.73;13.15;;;13.50;99.90;;;;;;5072945;28;20373;-81
2023/06/20 03:24:28;;;;;;;19.48;15.80;;;13.60;99.90;;;;;;5072971;28;20032;-85
2023/06/20 03:26:53;;;;;;;20.63;16.73;;;13.70;99.90;;;;;;5074070;28;20430;-85
2023/06/20 03:29:19;;;;;;;23.15;17.02;;;13.90;99.90;;;;;;5081029;28;20038;-85
2023/06/20 03:31:44;;;;;;;17.73;15.82;;;14.20;99.90;;;;;;5074294;28;20086;-83
2023/06/20 03:34:10;;;;;;;19.05;16.60;;;14.40;99.90;;;;;;5074030;28;20099;-82
2023/06/20 03:36:38;;;;;;;17.30;15.52;;;14.50;99.90;;;;;;5073699;28;20029;-84
2023/06/20 03:39:03;;;;;;;15.13;13.52;;;14.70;99.90;;;;;;5072828;28;20024;-83
2023/06/20 03:41:29;;;;;;;13.80;12.23;;;14.90;99.90;;;;;;5073886;28;20040;-84
2023/06/20 03:43:54;;;;;;;12.57;11.38;;;15.00;99.90;;;;;;5072624;28;20021;-85
2023/06/20 03:46:20;;;;;;;13.68;12.13;;;15.20;99.90;;;;;;5073762;28;20028;-83
2023/06/20 03:48:45;;;;;;;13.88;12.23;;;15.40;99.90;;;;;;5073887;28;20106;-83
2023/06/20 03:51:12;;;;;;;15.70;12.45;;;15.60;99.90;;;;;;5073653;28;20035;-84
2023/06/20 03:53:37;;;;;;;12.43;10.95;;;15.70;99.90;;;;;;5073467;28;20027;-83
2023/06/20 03:56:03;;;;;;;12.73;11.43;;;15.80;99.90;;;;;;5073910;28;20024;-83
2023/06/20 03:58:29;;;;;;;12.27;11.02;;;16.00;99.90;;;;;;5072416;28;20103;-83
2023/06/20 04:00:54;;;;;;;11.50;10.43;;;16.10;99.90;;;;;;5072439;28;20032;-83
2023/06/20 04:03:20;;;;;;;12.32;11.05;;;16.30;99.90;;;;;;5072325;28;20027;-83
2023/06/20 04:05:45;;;;;;;11.52;10.32;;;16.30;99.90;;;;;;5073635;28;20075;-83
2023/06/20 04:08:11;;;;;;;11.35;10.30;;;16.50;99.90;;;;;;5073510;28;20031;-82
2023/06/20 04:10:37;;;;;;;12.38;10.98;;;16.70;99.90;;;;;;5073533;28;20082;-83
2023/06/20 04:13:03;;;;;;;12.52;10.30;;;16.90;99.90;;;;;;5073730;28;20039;-84
2023/06/20 04:15:29;;;;;;;12.68;11.00;;;17.10;99.90;;;;;;5074990;28;20517;-83
2023/06/20 04:17:55;;;;;;;11.07;10.05;;;17.20;99.90;;;;;;5073623;28;20485;-83
2023/06/20 04:20:20;;;;;;;14.13;10.98;;;17.40;99.90;;;;;;5073582;28;20051;-84
2023/06/20 04:22:46;;;;;;;11.88;9.98;;;17.50;99.90;;;;;;5073698;28;20373;-83
2023/06/20 04:25:15;;;;;;;12.60;10.48;;;17.60;99.90;;;;;;5073491;28;20024;-83
2023/06/20 04:27:41;;;;;;;11.45;9.63;;;17.80;99.90;;;;;;5073268;28;20025;-84
2023/06/20 04:30:07;;;;;;;11.02;9.95;;;17.90;99.90;;;;;;5080774;28;20092;-83
2023/06/20 04:32:34;;;;;;;11.35;10.20;;;18.10;99.90;;;;;;5094497;28;20035;-82
2023/06/20 04:35:00;;;;;;;12.00;10.80;;;18.30;99.90;;;;;;5092432;28;20027;-84
2023/06/20 04:37:29;;;;;;;12.48;10.90;;;18.40;99.90;;;;;;5092191;28;20024;-83
2023/06/20 04:39:56;;;;;;;11.85;10.00;;;18.60;99.90;;;;;;5092448;28;20064;-83
2023/06/20 04:42:21;;;;;;;10.65;9.65;;;18.80;99.90;;;;;;5093562;28;20423;-83
2023/06/20 04:44:48;;;;;;;12.05;10.88;;;19.00;99.90;;;;;;5091175;28;20115;-82
2023/06/20 04:47:14;;;;;;;13.00;11.70;;;19.20;99.90;;;;;;5084751;28;20035;-83
2023/06/20 04:49:40;;;;;;;15.50;14.13;;;19.20;99.90;;;;;;5089844;28;20035;-82
2023/06/20 04:52:06;;;;;;;14.27;12.93;;;19.10;99.90;;;;;;5089124;28;20554;-81
2023/06/20 04:54:32;;;;;;;13.80;12.35;;;19.10;99.90;;;;;;5081577;28;20525;-81
2023/06/20 05:00:20;;;;;;;14.45;13.05;;;19.30;99.90;;;;;;5077042;28;20547;-82
2023/06/20 05:02:46;;;;;;;14.60;12.68;;;19.40;99.90;;;;;;5076085;28;20032;-82
2023/06/20 05:05:12;;;;;;;14.20;12.77;;;19.50;99.90;;;;;;5075362;28;20078;-82
2023/06/20 05:07:41;;;;;;;14.30;12.80;;;19.70;99.90;;;;;;5076536;28;20028;-82
2023/06/20 05:10:07;;;;;;;14.77;13.30;;;19.80;99.90;;;;;;5075170;28;20119;-81
2023/06/20 05:12:33;;;;;;;13.98;12.43;;;19.90;99.90;;;;;;5075255;28;20116;-79
2023/06/20 05:14:59;;;;;;;15.43;12.55;;;20.00;99.90;;;;;;5076539;28;20099;-81
2023/06/20 05:17:27;;;;;;;13.50;11.60;;;20.20;99.90;;;;;;5076764;28;20480;-82
2023/06/20 05:19:53;;;;;;;16.70;12.38;;;20.30;99.90;;;;;;5077750;28;20032;-82
2023/06/20 05:22:18;;;;;;;11.50;10.45;;;20.50;99.90;;;;;;5082265;28;20043;-82
2023/06/20 05:24:44;;;;;;;11.75;10.35;;;20.70;88.90;;;;;;5084388;28;20058;-82
2023/06/20 05:27:10;;;;;;;11.13;9.57;;;20.90;84.70;;;;;;5075074;28;20041;-81
2023/06/20 05:29:35;;;;;;;11.02;9.63;;;21.00;80.60;;;;;;5073873;28;20115;-81
2023/06/20 05:32:01;;;;;;;10.48;9.38;;;21.20;79.20;;;;;;5086211;28;20495;-81
2023/06/20 05:34:27;;;;;;;11.27;10.07;;;21.30;79.00;;;;;;5074068;28;20017;-81
2023/06/20 05:36:52;;;;;;;14.48;9.98;;;21.40;76.30;;;;;;5075606;28;20089;-81
2023/06/20 05:39:18;;;;;;;20.77;10.45;;;21.60;77.60;;;;;;5075648;28;20017;-82
2023/06/20 05:41:44;;;;;;;11.88;9.93;;;21.60;76.50;;;;;;5072951;28;20028;-81
2023/06/20 05:44:09;;;;;;;13.00;10.90;;;21.80;76.30;;;;;;5075672;28;20536;-81
2023/06/20 05:46:35;;;;;;;24.92;11.35;;;21.90;75.50;;;;;;5074376;28;20040;-80
2023/06/20 05:49:01;;;;;;;10.95;9.95;;;22.00;74.20;;;;;;5074511;28;20045;-81
2023/06/20 05:51:30;;;;;;;12.20;10.98;;;22.10;73.40;;;;;;5073324;28;20056;-82
2023/06/20 05:53:57;;;;;;;12.57;10.13;;;22.20;72.90;;;;;;5072861;28;20020;-82
2023/06/20 05:56:23;;;;;;;13.50;9.52;;;22.30;72.60;;;;;;5088674;28;20119;-81
2023/06/20 05:58:49;;;;;;;11.60;10.40;;;22.50;72.30;;;;;;5093374;28;20028;-81
2023/06/20 06:01:16;;;;;;;12.85;11.00;;;22.60;71.90;;;;;;5092301;28;20493;-83
2023/06/20 06:03:42;;;;;;;17.80;11.40;;;22.80;70.50;;;;;;5090470;28;20020;-81
2023/06/20 06:06:11;;;;;;;12.20;9.38;;;22.90;69.10;;;;;;5081485;28;20626;-82
2023/06/20 06:08:37;;;;;;;10.40;9.32;;;22.90;68.60;;;;;;5072230;28;20025;-81
2023/06/20 06:11:02;;;;;;;10.88;9.23;;;23.10;66.00;;;;;;5072450;28;20542;-81
2023/06/20 06:13:28;;;;;;;12.32;10.13;;;23.10;64.40;;;;;;5071102;28;20104;-82
2023/06/20 06:15:54;;;;;;;11.68;9.40;;;23.20;64.90;;;;;;5072062;28;20036;-83
2023/06/20 06:18:20;;;;;;;10.95;9.25;;;23.20;64.90;;;;;;5073783;28;20032;-81
2023/06/20 06:20:45;;;;;;;10.00;8.98;;;23.40;64.90;;;;;;5071327;28;20024;-82
2023/06/20 06:23:11;;;;;;;10.88;9.77;;;23.50;62.80;;;;;;5072631;28;20098;-81
2023/06/20 06:25:37;;;;;;;11.43;10.23;;;23.70;65.00;;;;;;5071845;28;20032;-81
2023/06/20 06:28:02;;;;;;;15.73;9.60;;;23.70;62.10;;;;;;5071930;28;20037;-81
2023/06/20 06:30:28;;;;;;;13.13;10.18;;;23.90;62.90;;;;;;5076454;28;20115;-82
2023/06/20 06:32:54;;;;;;;12.75;9.57;;;24.00;61.70;;;;;;5072918;28;20025;-83
2023/06/20 06:35:20;;;;;;;11.35;10.15;;;24.10;61.70;;;;;;5072451;28;20032;-83
2023/06/20 06:37:47;;;;;;;12.80;9.95;;;24.10;60.90;;;;;;5072653;28;20447;-82
2023/06/20 06:40:13;;;;;;;11.75;9.88;;;24.30;60.50;;;;;;5073697;28;20029;-81
2023/06/20 06:42:39;;;;;;;10.70;9.18;;;24.50;60.60;;;;;;5072032;28;20017;-81
2023/06/20 06:45:05;;;;;;;10.65;9.57;;;24.60;60.40;;;;;;5072431;28;20415;-82
2023/06/20 06:47:31;;;;;;;11.98;9.23;;;24.80;59.90;;;;;;5035200;28;1125164;-81
2023/06/20 06:49:56;;;;;;;13.15;9.23;;;25.00;59.00;;;;;;5092033;28;20104;-83
2023/06/20 06:52:23;;;;;;;10.57;9.13;;;25.00;59.40;;;;;;5093584;28;20032;-81
2023/06/20 06:54:48;;;;;;;10.88;9.27;;;25.20;57.20;;;;;;5092068;28;20023;-82
2023/06/20 06:57:14;;;;;;;14.00;8.77;;;25.30;56.90;;;;;;5085572;28;20374;-82
2023/06/20 06:59:39;;;;;;;10.55;9.52;;;25.40;57.40;;;;;;5094782;28;20034;-81
2023/06/20 07:02:05;;;;;;;10.05;9.05;;;25.40;57.70;;;;;;5087496;28;20028;-81
2023/06/20 07:04:32;;;;;;;10.57;9.50;;;25.60;57.60;;;;;;5091318;28;20024;-81
2023/06/20 07:06:57;;;;;;;10.55;9.50;;;25.70;57.00;;;;;;5094319;28;20070;-81
2023/06/20 07:09:23;;;;;;;11.30;9.73;;;25.70;56.10;;;;;;5091914;28;20020;-82
2023/06/20 07:11:49;;;;;;;11.25;8.90;;;25.90;56.10;;;;;;5092453;28;20047;-82
2023/06/20 07:14:14;;;;;;;13.05;10.63;;;25.90;54.80;;;;;;5093698;28;20099;-81
2023/06/20 07:16:40;;;;;;;12.63;9.27;;;26.10;54.00;;;;;;5093088;28;20023;-82
2023/06/20 07:19:05;;;;;;;14.07;9.98;;;26.20;53.40;;;;;;5094395;28;20063;-82
2023/06/20 07:21:31;;;;;;;14.75;10.10;;;26.30;54.00;;;;;;5092936;28;20115;-83
2023/06/20 07:23:56;;;;;;;10.10;8.43;;;26.40;53.30;;;;;;5097169;28;20028;-81
2023/06/20 07:26:22;;;;;;;9.68;8.68;;;26.50;52.40;;;;;;5095003;28;20058;-81
2023/06/20 07:28:48;;;;;;;9.23;7.63;;;26.50;51.60;;;;;;5093597;28;20050;-81
2023/06/20 07:31:18;;;;;;;9.88;7.28;;;26.70;50.80;;;;;;5093352;28;20392;-83
2023/06/20 07:33:43;;;;;;;10.55;7.70;;;26.90;50.50;;;;;;5093272;28;20047;-82
2023/06/20 07:36:09;;;;;;;8.10;7.30;;;27.10;48.90;;;;;;5094123;28;20056;-81
2023/06/20 07:38:34;;;;;;;7.85;6.90;;;27.10;48.60;;;;;;5093549;28;20468;-81
2023/06/20 07:41:00;;;;;;;7.68;6.60;;;27.20;47.10;;;;;;5094487;28;20435;-83
2023/06/20 07:43:26;;;;;;;8.40;7.40;;;27.40;45.10;;;;;;5093199;28;20020;-81
2023/06/20 07:45:51;;;;;;;8.52;7.68;;;27.30;46.90;;;;;;5092988;28;20020;-82
2023/06/20 07:48:17;;;;;;;8.45;7.22;;;27.20;46.60;;;;;;5095956;28;20052;-83
2023/06/20 07:50:43;;;;;;;7.28;6.55;;;27.30;47.40;;;;;;5093268;28;20098;-81
2023/06/20 07:53:08;;;;;;;7.93;6.75;;;27.40;46.20;;;;;;5094269;28;20024;-81
2023/06/20 07:55:34;;;;;;;6.95;6.35;;;27.70;46.20;;;;;;5092935;28;20020;-81
2023/06/20 07:58:00;;;;;;;7.75;6.95;;;27.80;44.00;;;;;;5094177;28;20103;-81
2023/06/20 08:00:26;;;;;;;7.78;6.97;;;27.80;44.40;;;;;;5092737;28;20040;-81
2023/06/20 08:02:52;;;;;;;6.97;6.38;;;27.90;45.50;;;;;;5094918;28;20024;-83
2023/06/20 08:05:18;;;;;;;8.68;6.47;;;28.10;45.40;;;;;;5094291;28;20024;-83
2023/06/20 08:07:43;;;;;;;7.70;6.22;;;28.20;43.90;;;;;;5094136;28;20023;-83
2023/06/20 08:10:10;;;;;;;7.10;6.40;;;28.30;43.10;;;;;;5093970;28;20385;-83
2023/06/20 08:12:37;;;;;;;8.70;7.05;;;28.40;43.60;;;;;;5092499;28;20024;-82
2023/06/20 08:15:03;;;;;;;9.90;7.70;;;28.40;43.10;;;;;;5095014;28;20052;-80
2023/06/20 08:17:28;;;;;;;7.90;7.10;;;28.40;42.70;;;;;;5094303;28;20535;-83
2023/06/20 08:19:54;;;;;;;7.60;6.82;;;28.30;42.10;;;;;;5093997;28;20024;-83
2023/06/20 08:22:19;;;;;;;8.25;6.93;;;28.30;42.70;;;;;;5093545;28;20054;-82
2023/06/20 08:24:45;;;;;;;8.75;7.80;;;28.40;41.80;;;;;;5092455;28;20118;-81
2023/06/20 08:27:11;;;;;;;8.15;7.20;;;28.50;42.10;;;;;;5094087;28;20020;-80
2023/06/20 08:29:36;;;;;;;9.65;7.25;;;28.50;41.00;;;;;;5093749;28;20027;-83
2023/06/20 08:32:02;;;;;;;9.93;7.38;;;28.50;41.00;;;;;;5092270;28;20024;-81
2023/06/20 08:34:27;;;;;;;8.40;7.38;;;28.80;41.40;;;;;;5092333;28;20017;-81
2023/06/20 08:36:53;;;;;;;8.45;7.60;;;28.80;41.90;;;;;;5093538;28;20018;-81
2023/06/20 08:39:20;;;;;;;8.00;7.15;;;29.00;42.70;;;;;;5092354;28;20020;-81
2023/06/20 08:41:45;;;;;;;9.70;8.70;;;29.00;41.80;;;;;;5092320;28;20028;-80
2023/06/20 08:44:11;;;;;;;10.07;8.30;;;29.10;42.40;;;;;;5093614;28;20043;-81
2023/06/20 08:46:37;;;;;;;9.40;7.80;;;29.20;42.50;;;;;;5093686;28;20073;-81
2023/06/20 08:49:03;;;;;;;8.68;7.35;;;29.20;42.00;;;;;;5092280;28;20389;-83
2023/06/20 08:51:30;;;;;;;8.85;7.97;;;29.30;42.30;;;;;;5092244;28;20024;-83
2023/06/20 08:53:58;;;;;;;8.40;7.50;;;29.50;41.10;;;;;;5092543;28;20024;-81
2023/06/20 08:56:24;;;;;;;10.30;7.25;;;29.50;41.50;;;;;;5092560;28;20047;-81
2023/06/20 08:58:49;;;;;;;8.57;7.05;;;29.20;42.70;;;;;;5092408;28;20366;-83
2023/06/20 09:01:15;;;;;;;11.75;9.00;;;29.30;43.10;;;;;;5093478;28;20043;-82
2023/06/20 09:03:41;;;;;;;10.88;9.77;;;29.30;42.40;;;;;;5092062;28;20020;-81
2023/06/20 09:06:06;;;;;;;8.23;7.55;;;29.20;44.00;;;;;;5093280;28;20469;-81
2023/06/20 09:08:36;;;;;;;8.48;7.53;;;29.20;43.70;;;;;;5093580;28;20380;-81
2023/06/20 09:11:09;;;;;;;11.18;7.95;;;29.30;44.00;;;;;;5092192;28;20016;-81
2023/06/20 09:13:36;;;;;;;9.20;7.57;;;29.50;43.20;;;;;;5093488;28;20046;-83
2023/06/20 09:16:09;;;;;;;7.88;7.15;;;29.60;44.40;;;;;;5091976;28;20477;-83
2023/06/20 09:18:37;;;;;;;8.75;7.85;;;29.60;42.60;;;;;;5094330;28;20028;-83
2023/06/20 09:21:03;;;;;;;8.63;7.55;;;29.70;42.80;;;;;;5092276;28;20035;-81
2023/06/20 09:23:30;;;;;;;8.45;7.75;;;29.80;42.10;;;;;;5092035;28;20496;-84
2023/06/20 09:25:56;;;;;;;7.68;6.90;;;29.80;42.20;;;;;;5093387;28;20509;-81
2023/06/20 09:28:22;;;;;;;12.90;8.85;;;30.00;42.40;;;;;;5091677;28;20485;-81
2023/06/20 09:30:48;;;;;;;9.23;8.00;;;29.90;43.30;;;;;;5091806;28;20024;-79
2023/06/20 09:33:15;;;;;;;7.90;7.30;;;29.70;42.20;;;;;;5092230;28;20048;-82
2023/06/20 09:35:41;;;;;;;11.05;9.48;;;29.80;41.90;;;;;;5095833;28;20023;-82
2023/06/20 09:38:08;;;;;;;9.18;8.27;;;29.80;43.00;;;;;;5097026;28;20020;-82
2023/06/20 09:40:44;;;;;;;7.57;6.88;;;29.80;41.60;;;;;;5095437;28;20024;-82
2023/06/20 09:43:10;;;;;;;10.43;7.65;;;30.00;41.50;;;;;;5095370;28;20031;-80
2023/06/20 09:45:36;;;;;;;8.27;7.47;;;30.20;42.10;;;;;;5096919;28;20024;-81
2023/06/20 09:48:03;;;;;;;7.95;7.25;;;29.90;39.90;;;;;;5095280;28;20451;-80
2023/06/20 09:50:29;;;;;;;9.15;7.13;;;30.10;40.80;;;;;;5095392;28;20027;-82
2023/06/20 09:53:14;;;;;;;8.55;7.60;;;30.10;41.80;;;;;;5096482;28;20027;-82
2023/06/20 09:55:41;;;;;;;8.73;7.85;;;29.80;40.40;;;;;;5095122;28;20020;-82
2023/06/20 09:58:09;;;;;;;13.63;8.05;;;29.70;40.90;;;;;;5096634;28;20035;-79
2023/06/20 10:00:37;;;;;;;7.97;7.18;;;29.70;40.80;;;;;;5096696;28;20113;-80
2023/06/20 10:03:09;;;;;;;13.80;7.82;;;29.60;41.30;;;;;;5095302;28;20104;-80
2023/06/20 10:05:36;;;;;;;7.93;7.13;;;29.60;40.00;;;;;;5096520;28;20092;-82
2023/06/20 10:08:02;;;;;;;8.68;7.78;;;29.60;40.00;;;;;;5095019;28;20032;-83
2023/06/20 10:10:27;;;;;;;8.75;7.85;;;29.70;39.90;;;;;;5096238;28;20023;-82
2023/06/20 10:12:55;;;;;;;8.38;6.95;;;29.80;41.00;;;;;;5095044;28;20020;-80
2023/06/20 10:15:21;;;;;;;9.63;7.53;;;29.80;40.60;;;;;;5095179;28;20020;-82
2023/06/20 10:17:47;;;;;;;7.72;7.03;;;29.80;39.90;;;;;;5094924;28;20028;-80
2023/06/20 10:20:37;;;;;;;16.42;8.27;;;29.90;40.60;;;;;;5095948;28;20028;-80
2023/06/20 10:23:05;;;;;;;8.43;7.45;;;30.00;40.00;;;;;;5085972;28;20036;-80
2023/06/20 10:25:31;;;;;;;10.98;7.85;;;30.20;39.90;;;;;;5094687;28;20358;-83
2023/06/20 10:28:05;;;;;;;11.40;8.38;;;30.00;40.70;;;;;;5094987;28;20024;-83
2023/06/20 10:30:46;;;;;;;15.55;8.50;;;30.00;39.40;;;;;;5094662;28;20392;-81
2023/06/20 10:33:13;;;;;;;10.52;7.45;;;30.30;39.90;;;;;;5094401;28;20024;-82
2023/06/20 10:35:52;;;;;;;10.68;7.88;;;30.40;39.10;;;;;;5095781;28;20106;-81
2023/06/20 10:38:18;;;;;;;8.50;7.72;;;30.60;39.80;;;;;;5095729;28;20055;-81
2023/06/20 10:40:44;;;;;;;10.15;6.50;;;30.80;39.30;;;;;;5096058;28;20072;-81
2023/06/20 10:43:22;;;;;;;8.70;7.75;;;31.00;39.80;;;;;;5095856;28;20025;-79
2023/06/20 10:46:01;;;;;;;7.85;7.15;;;30.80;37.80;;;;;;5094357;28;20021;-81
2023/06/20 10:48:27;;;;;;;8.35;6.93;;;30.30;37.10;;;;;;5094051;28;20370;-80
2023/06/20 10:51:00;;;;;;;8.55;7.38;;;30.20;36.90;;;;;;5095446;28;20028;-80
2023/06/20 10:53:28;;;;;;;9.77;7.88;;;30.20;36.90;;;;;;5094464;28;20028;-79
2023/06/20 10:55:53;;;;;;;8.68;7.70;;;30.50;38.10;;;;;;5094322;28;20024;-80
2023/06/20 10:58:19;;;;;;;8.13;7.13;;;30.20;37.50;;;;;;5094319;28;20077;-82
2023/06/20 11:00:44;;;;;;;7.95;7.15;;;30.10;37.60;;;;;;5095207;28;20055;-80
2023/06/20 11:03:10;;;;;;;9.95;7.75;;;30.50;37.10;;;;;;5093762;28;20119;-80
2023/06/20 11:05:36;;;;;;;8.48;7.68;;;30.60;37.80;;;;;;5095103;28;20036;-82
2023/06/20 11:08:08;;;;;;;7.80;7.00;;;30.90;36.80;;;;;;5094012;28;20028;-80
2023/06/20 11:10:37;;;;;;;7.88;7.07;;;31.10;37.00;;;;;;5095735;28;20027;-81
2023/06/20 11:13:05;;;;;;;9.25;7.63;;;31.20;35.90;;;;;;5095286;28;20024;-82
2023/06/20 11:15:35;;;;;;;8.60;7.38;;;31.30;36.80;;;;;;5093672;28;20362;-82
2023/06/20 11:18:03;;;;;;;7.05;5.95;;;31.40;35.40;;;;;;5093566;28;20044;-80
2023/06/20 11:20:29;;;;;;;7.82;7.00;;;31.40;34.30;;;;;;5093945;28;20070;-82
2023/06/20 11:22:56;;;;;;;9.20;7.60;;;31.50;34.50;;;;;;5093825;28;20044;-80
2023/06/20 11:25:22;;;;;;;8.43;7.57;;;31.60;34.50;;;;;;5094859;28;20078;-80
2023/06/20 11:27:48;;;;;;;7.30;6.70;;;31.80;34.50;;;;;;5094688;28;20024;-82
2023/06/20 11:30:14;;;;;;;7.68;6.97;;;31.70;34.50;;;;;;5093342;28;20027;-80
2023/06/20 11:32:39;;;;;;;7.75;6.80;;;31.70;33.70;;;;;;5094842;28;20403;-82
2023/06/20 11:35:08;;;;;;;7.40;6.63;;;31.80;34.20;;;;;;5095221;28;20081;-80
2023/06/20 11:37:34;;;;;;;10.82;7.68;;;31.80;33.30;;;;;;5094778;28;20024;-82
2023/06/20 11:40:00;;;;;;;8.43;7.65;;;31.80;34.30;;;;;;5094492;28;20036;-80
2023/06/20 11:42:32;;;;;;;10.07;7.60;;;31.60;34.20;;;;;;5085293;28;20103;-80
2023/06/20 11:45:08;;;;;;;8.02;7.03;;;31.50;34.80;;;;;;5072875;28;20021;-83
2023/06/20 11:47:34;;;;;;;8.35;7.18;;;31.60;34.40;;;;;;5072869;28;20044;-81
2023/06/20 11:50:00;;;;;;;7.30;6.63;;;31.60;35.20;;;;;;5074186;28;20468;-83
2023/06/20 11:52:32;;;;;;;11.73;7.57;;;31.60;39.20;;;;;;5074061;28;20135;-81
2023/06/20 11:54:59;;;;;;;8.05;7.38;;;31.30;40.30;;;;;;5072670;28;20025;-83
2023/06/20 11:57:26;;;;;;;21.95;9.43;;;30.80;41.20;;;;;;5072325;28;20025;-82
2023/06/20 11:59:55;;;;;;;10.57;7.90;;;30.60;41.80;;;;;;5073854;28;20028;-82
2023/06/20 12:02:24;;;;;;;8.45;7.65;;;30.10;43.50;;;;;;5072883;28;20024;-81
2023/06/20 12:04:57;;;;;;;10.57;8.07;;;29.50;44.90;;;;;;5072738;28;20389;-82
2023/06/20 12:07:25;;;;;;;8.30;7.63;;;29.40;46.30;;;;;;5072483;28;20090;-80
2023/06/20 12:09:51;;;;;;;11.88;7.75;;;29.20;47.00;;;;;;5072513;28;20078;-80
2023/06/20 12:12:17;;;;;;;11.63;8.40;;;28.90;46.90;;;;;;5073670;28;20061;-80
2023/06/20 12:14:47;;;;;;;19.45;9.18;;;28.80;48.10;;;;;;5073594;28;20434;-82
2023/06/20 12:17:13;;;;;;;8.68;7.43;;;28.70;48.00;;;;;;5073241;28;20115;-82
2023/06/20 12:19:52;;;;;;;9.57;7.50;;;28.60;48.60;;;;;;5072475;28;20104;-80
2023/06/20 12:22:18;;;;;;;11.60;7.82;;;29.00;50.50;;;;;;5072326;28;20363;-82
2023/06/20 12:24:45;;;;;;;9.05;7.53;;;29.10;49.30;;;;;;5072346;28;20024;-82
2023/06/20 12:27:11;;;;;;;9.40;7.20;;;29.50;48.00;;;;;;5072297;28;20066;-80
2023/06/20 12:29:37;;;;;;;8.48;7.55;;;29.60;46.90;;;;;;5073444;28;20016;-82
2023/06/20 12:32:03;;;;;;;11.35;7.75;;;29.80;46.90;;;;;;5074150;28;20096;-82
2023/06/20 12:34:28;;;;;;;17.42;8.25;;;30.00;46.60;;;;;;5072352;28;20024;-82
2023/06/20 12:36:54;;;;;;;10.75;8.27;;;30.10;45.40;;;;;;5073647;28;20024;-80
2023/06/20 12:39:20;;;;;;;13.48;8.63;;;30.20;45.90;;;;;;5072386;28;20033;-80
2023/06/20 12:41:45;;;;;;;9.48;8.02;;;30.10;46.80;;;;;;5073307;28;20036;-80